KELN/ELN METAR and TAF weather

Enter ICAO airport designator
Station Type Date Time Source
KELN METAR 2019/12/07 09:53 UTC NOAA

KELN 070953Z AUTO 01003KT 4SM -RA BR BKN012 OVC017 03/02 A2982 RMK AO2 SLP108 P0003 T00330017


Station Type Date Time Source
KELN Decoded METAR 2019/12/07 09:53 UTC NOAA

ELLENSBURG BOWERS FIELD, WA, United States (KELN) 47-02N 120-32W 519M
Dec 07, 2019 - 04:53 AM EST / 2019.12.07 0953 UTC
Wind: from the N (010 degrees) at 3 MPH (3 KT):0
Visibility: 4 mile(s):0
Sky conditions: overcast
Weather: light rain; mist
Precipitation last hour: 0.03 inches
Temperature: 37.9 F (3.3 C)
Dew Point: 35.1 F (1.7 C)
Relative Humidity: 89%
Pressure (altimeter): 29.82 in. Hg (1009 hPa)
ob: KELN 070953Z AUTO 01003KT 4SM -RA BR BKN012 OVC017 03/02 A2982 RMK AO2 SLP108 P0003 T00330017
cycle: 10

Station Type Date Time Source
KELN TAF UTC NOAA

Error!

Example: see airport list